sensor_id;sensor_type;location;lat;lon;timestamp;P1;durP1;ratioP1;P2;durP2;ratioP2
68072;SDS011;54862;51.502;7.446;2023-06-22T00:02:00;12.05;;;6.43;;
68072;SDS011;54862;51.502;7.446;2023-06-22T00:04:29;11.75;;;6.28;;
68072;SDS011;54862;51.502;7.446;2023-06-22T00:06:55;11.90;;;6.32;;
68072;SDS011;54862;51.502;7.446;2023-06-22T00:09:20;12.15;;;6.10;;
68072;SDS011;54862;51.502;7.446;2023-06-22T00:11:46;12.18;;;6.65;;
68072;SDS011;54862;51.502;7.446;2023-06-22T00:14:12;9.70;;;5.30;;
68072;SDS011;54862;51.502;7.446;2023-06-22T00:16:41;12.02;;;6.93;;
68072;SDS011;54862;51.502;7.446;2023-06-22T00:19:07;11.82;;;6.80;;
68072;SDS011;54862;51.502;7.446;2023-06-22T00:21:39;14.40;;;6.72;;
68072;SDS011;54862;51.502;7.446;2023-06-22T00:24:05;12.02;;;6.90;;
68072;SDS011;54862;51.502;7.446;2023-06-22T00:26:31;13.27;;;6.15;;
68072;SDS011;54862;51.502;7.446;2023-06-22T00:29:00;12.75;;;6.90;;
68072;SDS011;54862;51.502;7.446;2023-06-22T00:31:26;11.48;;;6.20;;
68072;SDS011;54862;51.502;7.446;2023-06-22T00:33:52;11.45;;;6.22;;
68072;SDS011;54862;51.502;7.446;2023-06-22T00:36:18;12.30;;;7.07;;
68072;SDS011;54862;51.502;7.446;2023-06-22T00:38:44;11.32;;;6.03;;
68072;SDS011;54862;51.502;7.446;2023-06-22T00:41:10;11.75;;;6.40;;
68072;SDS011;54862;51.502;7.446;2023-06-22T00:43:36;11.85;;;6.00;;
68072;SDS011;54862;51.502;7.446;2023-06-22T00:46:02;14.23;;;6.53;;
68072;SDS011;54862;51.502;7.446;2023-06-22T00:48:28;11.77;;;6.20;;
68072;SDS011;54862;51.502;7.446;2023-06-22T00:50:54;10.90;;;6.28;;
68072;SDS011;54862;51.502;7.446;2023-06-22T00:53:21;12.32;;;6.45;;
68072;SDS011;54862;51.502;7.446;2023-06-22T00:55:47;13.90;;;6.07;;
68072;SDS011;54862;51.502;7.446;2023-06-22T00:58:16;12.00;;;6.55;;
68072;SDS011;54862;51.502;7.446;2023-06-22T01:00:42;12.02;;;6.53;;
68072;SDS011;54862;51.502;7.446;2023-06-22T01:03:08;12.23;;;6.32;;
68072;SDS011;54862;51.502;7.446;2023-06-22T01:05:35;12.15;;;6.85;;
68072;SDS011;54862;51.502;7.446;2023-06-22T01:08:06;12.40;;;6.22;;
68072;SDS011;54862;51.502;7.446;2023-06-22T01:10:40;13.63;;;5.90;;
68072;SDS011;54862;51.502;7.446;2023-06-22T01:13:09;12.13;;;6.38;;
68072;SDS011;54862;51.502;7.446;2023-06-22T01:15:38;11.27;;;6.68;;
68072;SDS011;54862;51.502;7.446;2023-06-22T01:18:05;11.90;;;6.13;;
68072;SDS011;54862;51.502;7.446;2023-06-22T01:20:34;11.27;;;6.68;;
68072;SDS011;54862;51.502;7.446;2023-06-22T01:23:11;11.38;;;5.90;;
68072;SDS011;54862;51.502;7.446;2023-06-22T01:25:56;11.25;;;6.15;;
68072;SDS011;54862;51.502;7.446;2023-06-22T01:31:08;11.70;;;6.30;;
68072;SDS011;54862;51.502;7.446;2023-06-22T01:33:37;9.98;;;5.28;;
68072;SDS011;54862;51.502;7.446;2023-06-22T01:36:06;9.88;;;5.82;;
68072;SDS011;54862;51.502;7.446;2023-06-22T01:38:32;14.05;;;6.55;;
68072;SDS011;54862;51.502;7.446;2023-06-22T01:40:59;14.10;;;8.52;;
68072;SDS011;54862;51.502;7.446;2023-06-22T01:43:26;11.98;;;8.30;;
68072;SDS011;54862;51.502;7.446;2023-06-22T01:45:53;13.27;;;8.63;;
68072;SDS011;54862;51.502;7.446;2023-06-22T01:48:19;13.38;;;7.40;;
68072;SDS011;54862;51.502;7.446;2023-06-22T01:50:46;12.15;;;7.07;;
68072;SDS011;54862;51.502;7.446;2023-06-22T01:53:12;17.00;;;8.48;;
68072;SDS011;54862;51.502;7.446;2023-06-22T01:55:41;13.75;;;7.65;;
68072;SDS011;54862;51.502;7.446;2023-06-22T01:58:07;11.88;;;7.32;;
68072;SDS011;54862;51.502;7.446;2023-06-22T02:00:33;13.13;;;7.28;;
68072;SDS011;54862;51.502;7.446;2023-06-22T02:03:01;12.18;;;6.55;;
68072;SDS011;54862;51.502;7.446;2023-06-22T02:05:31;10.50;;;6.97;;
68072;SDS011;54862;51.502;7.446;2023-06-22T02:08:09;12.15;;;7.53;;
68072;SDS011;54862;51.502;7.446;2023-06-22T02:10:36;13.80;;;7.20;;
68072;SDS011;54862;51.502;7.446;2023-06-22T02:13:04;13.35;;;8.15;;
68072;SDS011;54862;51.502;7.446;2023-06-22T02:15:31;11.68;;;7.05;;
68072;SDS011;54862;51.502;7.446;2023-06-22T02:17:57;14.38;;;8.15;;
68072;SDS011;54862;51.502;7.446;2023-06-22T02:20:23;11.82;;;7.22;;
68072;SDS011;54862;51.502;7.446;2023-06-22T02:22:49;11.23;;;7.50;;
68072;SDS011;54862;51.502;7.446;2023-06-22T02:25:15;16.52;;;8.45;;
68072;SDS011;54862;51.502;7.446;2023-06-22T02:27:41;12.40;;;7.63;;
68072;SDS011;54862;51.502;7.446;2023-06-22T02:30:08;12.05;;;7.60;;
68072;SDS011;54862;51.502;7.446;2023-06-22T02:32:34;11.63;;;7.45;;
68072;SDS011;54862;51.502;7.446;2023-06-22T02:35:00;14.13;;;8.90;;
68072;SDS011;54862;51.502;7.446;2023-06-22T02:37:30;13.70;;;8.20;;
68072;SDS011;54862;51.502;7.446;2023-06-22T02:39:56;14.82;;;8.23;;
68072;SDS011;54862;51.502;7.446;2023-06-22T02:42:22;14.80;;;8.07;;
68072;SDS011;54862;51.502;7.446;2023-06-22T02:44:48;12.60;;;8.05;;
68072;SDS011;54862;51.502;7.446;2023-06-22T02:47:14;15.30;;;10.10;;
68072;SDS011;54862;51.502;7.446;2023-06-22T02:49:40;14.20;;;9.57;;
68072;SDS011;54862;51.502;7.446;2023-06-22T02:52:06;13.48;;;8.55;;
68072;SDS011;54862;51.502;7.446;2023-06-22T02:54:32;15.98;;;10.07;;
68072;SDS011;54862;51.502;7.446;2023-06-22T02:56:58;13.85;;;8.52;;
68072;SDS011;54862;51.502;7.446;2023-06-22T02:59:27;13.02;;;8.52;;
68072;SDS011;54862;51.502;7.446;2023-06-22T03:01:53;16.10;;;9.45;;
68072;SDS011;54862;51.502;7.446;2023-06-22T03:04:20;16.65;;;8.93;;
68072;SDS011;54862;51.502;7.446;2023-06-22T03:06:45;13.85;;;8.20;;
68072;SDS011;54862;51.502;7.446;2023-06-22T03:09:16;12.73;;;8.82;;
68072;SDS011;54862;51.502;7.446;2023-06-22T03:11:42;14.43;;;8.45;;
68072;SDS011;54862;51.502;7.446;2023-06-22T03:14:08;17.30;;;8.68;;
68072;SDS011;54862;51.502;7.446;2023-06-22T03:16:34;16.63;;;8.30;;
68072;SDS011;54862;51.502;7.446;2023-06-22T03:19:00;14.98;;;8.45;;
68072;SDS011;54862;51.502;7.446;2023-06-22T03:21:28;12.38;;;8.43;;
68072;SDS011;54862;51.502;7.446;2023-06-22T03:23:54;13.77;;;8.60;;
68072;SDS011;54862;51.502;7.446;2023-06-22T03:26:20;16.67;;;9.35;;
68072;SDS011;54862;51.502;7.446;2023-06-22T03:28:48;14.15;;;9.45;;
68072;SDS011;54862;51.502;7.446;2023-06-22T03:31:14;15.82;;;9.40;;
68072;SDS011;54862;51.502;7.446;2023-06-22T03:33:40;13.90;;;9.30;;
68072;SDS011;54862;51.502;7.446;2023-06-22T03:36:06;17.80;;;10.77;;
68072;SDS011;54862;51.502;7.446;2023-06-22T03:38:36;14.88;;;9.85;;
68072;SDS011;54862;51.502;7.446;2023-06-22T03:41:05;16.92;;;10.25;;
68072;SDS011;54862;51.502;7.446;2023-06-22T03:43:31;15.68;;;10.35;;
68072;SDS011;54862;51.502;7.446;2023-06-22T03:45:57;15.57;;;9.60;;
68072;SDS011;54862;51.502;7.446;2023-06-22T03:48:23;15.20;;;10.23;;
68072;SDS011;54862;51.502;7.446;2023-06-22T03:50:49;15.07;;;9.93;;
68072;SDS011;54862;51.502;7.446;2023-06-22T03:53:15;14.07;;;10.18;;
68072;SDS011;54862;51.502;7.446;2023-06-22T03:55:49;15.60;;;10.45;;
68072;SDS011;54862;51.502;7.446;2023-06-22T03:58:16;15.68;;;10.30;;
68072;SDS011;54862;51.502;7.446;2023-06-22T04:00:43;15.02;;;10.05;;
68072;SDS011;54862;51.502;7.446;2023-06-22T04:03:09;15.38;;;10.88;;
68072;SDS011;54862;51.502;7.446;2023-06-22T04:05:38;15.20;;;9.70;;
68072;SDS011;54862;51.502;7.446;2023-06-22T04:08:04;17.38;;;10.63;;
68072;SDS011;54862;51.502;7.446;2023-06-22T04:10:30;15.52;;;10.35;;
68072;SDS011;54862;51.502;7.446;2023-06-22T04:12:57;17.15;;;10.68;;
68072;SDS011;54862;51.502;7.446;2023-06-22T04:15:25;14.57;;;9.98;;
68072;SDS011;54862;51.502;7.446;2023-06-22T04:17:51;13.73;;;9.50;;
68072;SDS011;54862;51.502;7.446;2023-06-22T04:20:17;16.15;;;9.90;;
68072;SDS011;54862;51.502;7.446;2023-06-22T04:22:43;16.88;;;11.02;;
68072;SDS011;54862;51.502;7.446;2023-06-22T04:25:10;19.42;;;10.75;;
68072;SDS011;54862;51.502;7.446;2023-06-22T04:27:36;17.77;;;11.10;;
68072;SDS011;54862;51.502;7.446;2023-06-22T04:30:05;20.02;;;11.73;;
68072;SDS011;54862;51.502;7.446;2023-06-22T04:32:32;16.00;;;10.60;;
68072;SDS011;54862;51.502;7.446;2023-06-22T04:34:58;15.60;;;10.95;;
68072;SDS011;54862;51.502;7.446;2023-06-22T04:37:25;19.17;;;11.10;;
68072;SDS011;54862;51.502;7.446;2023-06-22T04:39:51;17.55;;;11.52;;
68072;SDS011;54862;51.502;7.446;2023-06-22T04:42:20;16.90;;;11.23;;
68072;SDS011;54862;51.502;7.446;2023-06-22T04:44:46;16.73;;;10.75;;
68072;SDS011;54862;51.502;7.446;2023-06-22T04:47:12;18.35;;;12.13;;
68072;SDS011;54862;51.502;7.446;2023-06-22T04:49:38;18.35;;;10.77;;
68072;SDS011;54862;51.502;7.446;2023-06-22T04:52:08;16.20;;;11.35;;
68072;SDS011;54862;51.502;7.446;2023-06-22T04:54:38;15.82;;;11.15;;
68072;SDS011;54862;51.502;7.446;2023-06-22T04:57:05;15.63;;;10.95;;
68072;SDS011;54862;51.502;7.446;2023-06-22T04:59:35;16.00;;;11.43;;
68072;SDS011;54862;51.502;7.446;2023-06-22T05:02:01;17.92;;;10.75;;
68072;SDS011;54862;51.502;7.446;2023-06-22T05:04:30;15.75;;;10.75;;
68072;SDS011;54862;51.502;7.446;2023-06-22T05:06:58;14.98;;;10.75;;
68072;SDS011;54862;51.502;7.446;2023-06-22T05:09:29;15.57;;;10.02;;
68072;SDS011;54862;51.502;7.446;2023-06-22T05:11:58;14.95;;;10.43;;
68072;SDS011;54862;51.502;7.446;2023-06-22T05:14:27;18.35;;;10.80;;
68072;SDS011;54862;51.502;7.446;2023-06-22T05:16:55;16.05;;;9.82;;
68072;SDS011;54862;51.502;7.446;2023-06-22T05:19:23;15.32;;;10.75;;
68072;SDS011;54862;51.502;7.446;2023-06-22T05:21:50;14.95;;;10.50;;
68072;SDS011;54862;51.502;7.446;2023-06-22T05:24:18;16.15;;;10.27;;
68072;SDS011;54862;51.502;7.446;2023-06-22T05:26:46;14.00;;;9.38;;
68072;SDS011;54862;51.502;7.446;2023-06-22T05:29:12;19.88;;;10.68;;
68072;SDS011;54862;51.502;7.446;2023-06-22T05:31:38;16.08;;;9.98;;
68072;SDS011;54862;51.502;7.446;2023-06-22T05:34:08;15.30;;;10.77;;
68072;SDS011;54862;51.502;7.446;2023-06-22T05:36:34;13.43;;;9.52;;
68072;SDS011;54862;51.502;7.446;2023-06-22T05:39:00;15.35;;;10.38;;
68072;SDS011;54862;51.502;7.446;2023-06-22T05:41:37;14.52;;;9.82;;
68072;SDS011;54862;51.502;7.446;2023-06-22T05:44:05;14.43;;;9.95;;
68072;SDS011;54862;51.502;7.446;2023-06-22T05:46:32;15.57;;;9.65;;
68072;SDS011;54862;51.502;7.446;2023-06-22T05:48:58;14.57;;;9.27;;
68072;SDS011;54862;51.502;7.446;2023-06-22T05:51:24;15.80;;;8.57;;
68072;SDS011;54862;51.502;7.446;2023-06-22T05:53:52;14.15;;;8.98;;
68072;SDS011;54862;51.502;7.446;2023-06-22T05:56:18;16.63;;;9.30;;
68072;SDS011;54862;51.502;7.446;2023-06-22T05:58:45;14.80;;;9.60;;
68072;SDS011;54862;51.502;7.446;2023-06-22T06:01:11;13.98;;;8.50;;
68072;SDS011;54862;51.502;7.446;2023-06-22T06:03:37;13.88;;;8.60;;
68072;SDS011;54862;51.502;7.446;2023-06-22T06:06:06;13.18;;;9.02;;
68072;SDS011;54862;51.502;7.446;2023-06-22T06:08:32;14.18;;;8.68;;
68072;SDS011;54862;51.502;7.446;2023-06-22T06:10:58;13.23;;;9.13;;
68072;SDS011;54862;51.502;7.446;2023-06-22T06:13:24;16.25;;;10.32;;
68072;SDS011;54862;51.502;7.446;2023-06-22T06:15:50;13.90;;;9.70;;
68072;SDS011;54862;51.502;7.446;2023-06-22T06:18:16;16.08;;;10.05;;
68072;SDS011;54862;51.502;7.446;2023-06-22T06:20:42;17.40;;;10.10;;
68072;SDS011;54862;51.502;7.446;2023-06-22T06:23:08;17.15;;;10.13;;
68072;SDS011;54862;51.502;7.446;2023-06-22T06:25:34;15.88;;;9.95;;
68072;SDS011;54862;51.502;7.446;2023-06-22T06:28:03;16.15;;;10.60;;
68072;SDS011;54862;51.502;7.446;2023-06-22T06:30:32;13.48;;;9.50;;
68072;SDS011;54862;51.502;7.446;2023-06-22T06:32:58;15.63;;;10.30;;
68072;SDS011;54862;51.502;7.446;2023-06-22T06:35:24;14.63;;;10.18;;
68072;SDS011;54862;51.502;7.446;2023-06-22T06:37:50;17.33;;;10.57;;
68072;SDS011;54862;51.502;7.446;2023-06-22T06:40:17;14.13;;;9.80;;
68072;SDS011;54862;51.502;7.446;2023-06-22T06:42:47;14.52;;;9.55;;
68072;SDS011;54862;51.502;7.446;2023-06-22T06:45:17;17.75;;;10.82;;
68072;SDS011;54862;51.502;7.446;2023-06-22T06:47:43;14.98;;;10.73;;
68072;SDS011;54862;51.502;7.446;2023-06-22T06:50:09;16.60;;;10.48;;
68072;SDS011;54862;51.502;7.446;2023-06-22T06:52:38;17.48;;;10.80;;
68072;SDS011;54862;51.502;7.446;2023-06-22T06:55:04;16.23;;;11.68;;
68072;SDS011;54862;51.502;7.446;2023-06-22T06:57:36;17.23;;;11.25;;
68072;SDS011;54862;51.502;7.446;2023-06-22T07:00:03;17.15;;;10.55;;
68072;SDS011;54862;51.502;7.446;2023-06-22T07:02:34;16.23;;;11.25;;
68072;SDS011;54862;51.502;7.446;2023-06-22T07:05:00;16.73;;;12.30;;
68072;SDS011;54862;51.502;7.446;2023-06-22T07:07:28;18.17;;;12.10;;
68072;SDS011;54862;51.502;7.446;2023-06-22T07:09:54;18.92;;;12.27;;
68072;SDS011;54862;51.502;7.446;2023-06-22T07:12:20;17.38;;;12.15;;
68072;SDS011;54862;51.502;7.446;2023-06-22T07:14:46;19.52;;;11.65;;
68072;SDS011;54862;51.502;7.446;2023-06-22T07:17:12;17.27;;;11.95;;
68072;SDS011;54862;51.502;7.446;2023-06-22T07:19:40;17.20;;;11.38;;
68072;SDS011;54862;51.502;7.446;2023-06-22T07:22:07;19.52;;;12.55;;
68072;SDS011;54862;51.502;7.446;2023-06-22T07:24:33;16.83;;;12.18;;
68072;SDS011;54862;51.502;7.446;2023-06-22T07:27:02;17.20;;;12.25;;
68072;SDS011;54862;51.502;7.446;2023-06-22T07:29:31;17.30;;;12.82;;
68072;SDS011;54862;51.502;7.446;2023-06-22T07:31:58;18.48;;;12.52;;
68072;SDS011;54862;51.502;7.446;2023-06-22T07:34:28;17.98;;;12.70;;
68072;SDS011;54862;51.502;7.446;2023-06-22T07:36:54;19.23;;;12.35;;
68072;SDS011;54862;51.502;7.446;2023-06-22T07:39:20;16.80;;;12.18;;
68072;SDS011;54862;51.502;7.446;2023-06-22T07:41:50;16.58;;;12.10;;
68072;SDS011;54862;51.502;7.446;2023-06-22T07:44:16;17.30;;;13.00;;
68072;SDS011;54862;51.502;7.446;2023-06-22T07:46:42;17.90;;;12.48;;
68072;SDS011;54862;51.502;7.446;2023-06-22T07:49:08;18.75;;;12.52;;
68072;SDS011;54862;51.502;7.446;2023-06-22T07:51:34;23.10;;;13.93;;
68072;SDS011;54862;51.502;7.446;2023-06-22T07:54:00;19.17;;;12.55;;
68072;SDS011;54862;51.502;7.446;2023-06-22T07:56:26;23.33;;;13.05;;
68072;SDS011;54862;51.502;7.446;2023-06-22T07:58:52;18.17;;;13.15;;
68072;SDS011;54862;51.502;7.446;2023-06-22T08:01:18;17.83;;;13.07;;
68072;SDS011;54862;51.502;7.446;2023-06-22T08:03:47;19.80;;;13.10;;
68072;SDS011;54862;51.502;7.446;2023-06-22T08:06:13;21.10;;;13.57;;
68072;SDS011;54862;51.502;7.446;2023-06-22T08:08:41;19.08;;;14.23;;
68072;SDS011;54862;51.502;7.446;2023-06-22T08:11:08;19.60;;;14.20;;
68072;SDS011;54862;51.502;7.446;2023-06-22T08:13:34;21.25;;;14.30;;
68072;SDS011;54862;51.502;7.446;2023-06-22T08:16:02;19.13;;;13.57;;
68072;SDS011;54862;51.502;7.446;2023-06-22T08:18:28;20.80;;;13.75;;
68072;SDS011;54862;51.502;7.446;2023-06-22T08:20:54;21.33;;;14.25;;
68072;SDS011;54862;51.502;7.446;2023-06-22T08:23:23;19.88;;;13.63;;
68072;SDS011;54862;51.502;7.446;2023-06-22T08:25:49;18.77;;;13.40;;
68072;SDS011;54862;51.502;7.446;2023-06-22T08:28:17;17.77;;;13.68;;
68072;SDS011;54862;51.502;7.446;2023-06-22T08:30:43;19.60;;;13.23;;
68072;SDS011;54862;51.502;7.446;2023-06-22T08:33:09;18.73;;;13.75;;
68072;SDS011;54862;51.502;7.446;2023-06-22T08:35:35;19.27;;;13.13;;
68072;SDS011;54862;51.502;7.446;2023-06-22T08:38:01;18.83;;;13.05;;
68072;SDS011;54862;51.502;7.446;2023-06-22T08:40:27;19.95;;;13.88;;
68072;SDS011;54862;51.502;7.446;2023-06-22T08:42:54;21.10;;;13.85;;
68072;SDS011;54862;51.502;7.446;2023-06-22T08:45:20;18.42;;;12.90;;
68072;SDS011;54862;51.502;7.446;2023-06-22T08:47:46;18.83;;;12.95;;
68072;SDS011;54862;51.502;7.446;2023-06-22T08:50:12;19.17;;;13.07;;
68072;SDS011;54862;51.502;7.446;2023-06-22T08:52:39;20.85;;;12.90;;
68072;SDS011;54862;51.502;7.446;2023-06-22T08:55:08;16.00;;;11.50;;
68072;SDS011;54862;51.502;7.446;2023-06-22T08:57:34;15.48;;;10.68;;
68072;SDS011;54862;51.502;7.446;2023-06-22T09:00:03;17.05;;;12.10;;
68072;SDS011;54862;51.502;7.446;2023-06-22T09:02:30;16.75;;;11.55;;
68072;SDS011;54862;51.502;7.446;2023-06-22T09:04:57;16.92;;;12.15;;
68072;SDS011;54862;51.502;7.446;2023-06-22T09:07:23;15.50;;;11.27;;
68072;SDS011;54862;51.502;7.446;2023-06-22T09:09:50;15.07;;;10.38;;
68072;SDS011;54862;51.502;7.446;2023-06-22T09:12:16;14.05;;;10.13;;
68072;SDS011;54862;51.502;7.446;2023-06-22T09:14:44;14.38;;;10.45;;
68072;SDS011;54862;51.502;7.446;2023-06-22T09:17:11;15.70;;;11.63;;
68072;SDS011;54862;51.502;7.446;2023-06-22T09:19:37;17.58;;;11.23;;
68072;SDS011;54862;51.502;7.446;2023-06-22T09:22:04;16.58;;;11.93;;
68072;SDS011;54862;51.502;7.446;2023-06-22T09:24:31;14.30;;;10.15;;
68072;SDS011;54862;51.502;7.446;2023-06-22T09:26:57;16.95;;;9.18;;
68072;SDS011;54862;51.502;7.446;2023-06-22T09:29:23;13.77;;;8.98;;
68072;SDS011;54862;51.502;7.446;2023-06-22T09:31:51;14.27;;;9.05;;
68072;SDS011;54862;51.502;7.446;2023-06-22T09:34:20;12.35;;;8.90;;
68072;SDS011;54862;51.502;7.446;2023-06-22T09:36:47;12.43;;;8.68;;
68072;SDS011;54862;51.502;7.446;2023-06-22T09:39:13;12.82;;;8.07;;
68072;SDS011;54862;51.502;7.446;2023-06-22T09:41:39;13.68;;;8.43;;
68072;SDS011;54862;51.502;7.446;2023-06-22T09:44:05;12.15;;;8.50;;
68072;SDS011;54862;51.502;7.446;2023-06-22T09:46:31;13.18;;;8.90;;
68072;SDS011;54862;51.502;7.446;2023-06-22T09:48:57;13.68;;;7.95;;
68072;SDS011;54862;51.502;7.446;2023-06-22T09:51:23;12.85;;;8.07;;
68072;SDS011;54862;51.502;7.446;2023-06-22T09:53:52;13.98;;;8.60;;
68072;SDS011;54862;51.502;7.446;2023-06-22T09:56:23;14.55;;;8.60;;
68072;SDS011;54862;51.502;7.446;2023-06-22T09:58:49;13.18;;;8.02;;
68072;SDS011;54862;51.502;7.446;2023-06-22T10:01:17;12.50;;;7.88;;
68072;SDS011;54862;51.502;7.446;2023-06-22T10:03:43;12.48;;;7.80;;
68072;SDS011;54862;51.502;7.446;2023-06-22T10:06:09;12.52;;;8.60;;
68072;SDS011;54862;51.502;7.446;2023-06-22T10:08:36;13.70;;;8.70;;
68072;SDS011;54862;51.502;7.446;2023-06-22T10:11:02;15.43;;;8.30;;
68072;SDS011;54862;51.502;7.446;2023-06-22T10:13:28;13.80;;;9.07;;
68072;SDS011;54862;51.502;7.446;2023-06-22T10:15:54;12.68;;;8.82;;
68072;SDS011;54862;51.502;7.446;2023-06-22T10:18:21;13.95;;;8.48;;
68072;SDS011;54862;51.502;7.446;2023-06-22T10:20:47;14.90;;;9.05;;
68072;SDS011;54862;51.502;7.446;2023-06-22T10:23:15;12.38;;;8.52;;
68072;SDS011;54862;51.502;7.446;2023-06-22T10:25:41;12.57;;;8.68;;
68072;SDS011;54862;51.502;7.446;2023-06-22T10:28:09;14.52;;;9.35;;
68072;SDS011;54862;51.502;7.446;2023-06-22T10:30:35;12.50;;;8.38;;
68072;SDS011;54862;51.502;7.446;2023-06-22T10:33:01;13.40;;;7.85;;
68072;SDS011;54862;51.502;7.446;2023-06-22T10:35:27;11.70;;;7.55;;
68072;SDS011;54862;51.502;7.446;2023-06-22T10:37:54;13.50;;;8.57;;
68072;SDS011;54862;51.502;7.446;2023-06-22T10:40:21;13.30;;;8.18;;
68072;SDS011;54862;51.502;7.446;2023-06-22T10:42:47;13.25;;;8.00;;
68072;SDS011;54862;51.502;7.446;2023-06-22T10:45:15;11.45;;;7.75;;
68072;SDS011;54862;51.502;7.446;2023-06-22T10:47:41;11.10;;;7.80;;
68072;SDS011;54862;51.502;7.446;2023-06-22T10:50:07;13.15;;;8.30;;
68072;SDS011;54862;51.502;7.446;2023-06-22T10:52:33;12.75;;;7.75;;
68072;SDS011;54862;51.502;7.446;2023-06-22T10:54:59;13.68;;;8.55;;
68072;SDS011;54862;51.502;7.446;2023-06-22T10:57:27;13.02;;;8.73;;
68072;SDS011;54862;51.502;7.446;2023-06-22T10:59:53;13.43;;;8.40;;
68072;SDS011;54862;51.502;7.446;2023-06-22T11:02:19;11.55;;;7.75;;
68072;SDS011;54862;51.502;7.446;2023-06-22T11:04:50;13.73;;;8.20;;
68072;SDS011;54862;51.502;7.446;2023-06-22T11:07:16;11.68;;;8.15;;
68072;SDS011;54862;51.502;7.446;2023-06-22T11:09:45;10.90;;;7.65;;
68072;SDS011;54862;51.502;7.446;2023-06-22T11:12:11;11.50;;;7.40;;
68072;SDS011;54862;51.502;7.446;2023-06-22T11:14:38;11.50;;;7.25;;
68072;SDS011;54862;51.502;7.446;2023-06-22T11:17:04;11.52;;;7.60;;
68072;SDS011;54862;51.502;7.446;2023-06-22T11:19:30;12.52;;;7.80;;
68072;SDS011;54862;51.502;7.446;2023-06-22T11:21:56;11.30;;;7.07;;
68072;SDS011;54862;51.502;7.446;2023-06-22T11:24:22;12.77;;;7.50;;
68072;SDS011;54862;51.502;7.446;2023-06-22T11:26:48;11.43;;;8.00;;
68072;SDS011;54862;51.502;7.446;2023-06-22T11:29:14;11.70;;;8.07;;
68072;SDS011;54862;51.502;7.446;2023-06-22T11:31:40;12.52;;;8.43;;
68072;SDS011;54862;51.502;7.446;2023-06-22T11:34:08;11.35;;;8.13;;
68072;SDS011;54862;51.502;7.446;2023-06-22T11:36:34;12.20;;;8.82;;
68072;SDS011;54862;51.502;7.446;2023-06-22T11:39:00;13.52;;;9.05;;
68072;SDS011;54862;51.502;7.446;2023-06-22T11:41:30;13.88;;;9.52;;
68072;SDS011;54862;51.502;7.446;2023-06-22T11:43:56;15.23;;;10.40;;
68072;SDS011;54862;51.502;7.446;2023-06-22T11:46:22;16.42;;;11.38;;
68072;SDS011;54862;51.502;7.446;2023-06-22T11:48:48;17.33;;;10.73;;
68072;SDS011;54862;51.502;7.446;2023-06-22T11:51:16;14.85;;;11.65;;
68072;SDS011;54862;51.502;7.446;2023-06-22T11:53:42;16.42;;;11.45;;
68072;SDS011;54862;51.502;7.446;2023-06-22T11:56:08;19.08;;;11.80;;
68072;SDS011;54862;51.502;7.446;2023-06-22T11:58:34;15.00;;;11.18;;
68072;SDS011;54862;51.502;7.446;2023-06-22T12:01:00;15.90;;;10.90;;
68072;SDS011;54862;51.502;7.446;2023-06-22T12:03:26;16.20;;;12.18;;
68072;SDS011;54862;51.502;7.446;2023-06-22T12:05:55;18.70;;;12.52;;
68072;SDS011;54862;51.502;7.446;2023-06-22T12:08:21;18.80;;;12.95;;
68072;SDS011;54862;51.502;7.446;2023-06-22T12:10:47;24.15;;;14.68;;
68072;SDS011;54862;51.502;7.446;2023-06-22T12:13:13;19.80;;;13.30;;
68072;SDS011;54862;51.502;7.446;2023-06-22T12:15:39;21.20;;;14.63;;
68072;SDS011;54862;51.502;7.446;2023-06-22T12:18:05;21.15;;;13.85;;
68072;SDS011;54862;51.502;7.446;2023-06-22T12:20:36;21.17;;;14.40;;
68072;SDS011;54862;51.502;7.446;2023-06-22T12:23:02;20.23;;;13.75;;
68072;SDS011;54862;51.502;7.446;2023-06-22T12:25:28;21.48;;;15.20;;
68072;SDS011;54862;51.502;7.446;2023-06-22T12:27:54;23.13;;;15.27;;
68072;SDS011;54862;51.502;7.446;2023-06-22T12:30:20;19.45;;;14.55;;
68072;SDS011;54862;51.502;7.446;2023-06-22T12:32:46;20.38;;;14.18;;
68072;SDS011;54862;51.502;7.446;2023-06-22T12:35:12;22.83;;;15.55;;
68072;SDS011;54862;51.502;7.446;2023-06-22T12:37:42;19.63;;;14.13;;
68072;SDS011;54862;51.502;7.446;2023-06-22T12:40:10;23.63;;;15.55;;
68072;SDS011;54862;51.502;7.446;2023-06-22T12:42:36;23.80;;;15.63;;
68072;SDS011;54862;51.502;7.446;2023-06-22T12:45:02;21.65;;;15.10;;
68072;SDS011;54862;51.502;7.446;2023-06-22T12:47:29;22.67;;;14.27;;
68072;SDS011;54862;51.502;7.446;2023-06-22T12:49:55;19.00;;;13.98;;
68072;SDS011;54862;51.502;7.446;2023-06-22T12:52:21;21.65;;;14.43;;
68072;SDS011;54862;51.502;7.446;2023-06-22T12:54:49;21.83;;;14.95;;
68072;SDS011;54862;51.502;7.446;2023-06-22T12:57:15;20.35;;;14.20;;
68072;SDS011;54862;51.502;7.446;2023-06-22T12:59:42;19.20;;;13.77;;
68072;SDS011;54862;51.502;7.446;2023-06-22T13:02:08;22.23;;;15.35;;
68072;SDS011;54862;51.502;7.446;2023-06-22T13:04:34;22.00;;;14.90;;
68072;SDS011;54862;51.502;7.446;2023-06-22T13:07:03;24.85;;;14.70;;
68072;SDS011;54862;51.502;7.446;2023-06-22T13:09:29;21.55;;;15.38;;
68072;SDS011;54862;51.502;7.446;2023-06-22T13:11:56;23.98;;;15.65;;
68072;SDS011;54862;51.502;7.446;2023-06-22T13:14:24;20.58;;;14.25;;
68072;SDS011;54862;51.502;7.446;2023-06-22T13:16:52;20.52;;;14.68;;
68072;SDS011;54862;51.502;7.446;2023-06-22T13:19:18;21.45;;;14.52;;
68072;SDS011;54862;51.502;7.446;2023-06-22T13:21:44;21.77;;;15.07;;
68072;SDS011;54862;51.502;7.446;2023-06-22T13:24:10;21.52;;;14.65;;
68072;SDS011;54862;51.502;7.446;2023-06-22T13:26:39;22.35;;;15.27;;
68072;SDS011;54862;51.502;7.446;2023-06-22T13:29:07;19.98;;;14.65;;
68072;SDS011;54862;51.502;7.446;2023-06-22T13:31:36;22.70;;;16.35;;
68072;SDS011;54862;51.502;7.446;2023-06-22T13:34:05;21.17;;;15.98;;
68072;SDS011;54862;51.502;7.446;2023-06-22T13:36:31;21.42;;;14.70;;
68072;SDS011;54862;51.502;7.446;2023-06-22T13:38:57;18.77;;;14.05;;
68072;SDS011;54862;51.502;7.446;2023-06-22T13:41:23;18.42;;;13.32;;
68072;SDS011;54862;51.502;7.446;2023-06-22T13:43:49;19.25;;;14.13;;
68072;SDS011;54862;51.502;7.446;2023-06-22T13:46:15;16.58;;;12.88;;
68072;SDS011;54862;51.502;7.446;2023-06-22T13:48:41;17.80;;;13.88;;
68072;SDS011;54862;51.502;7.446;2023-06-22T13:51:07;17.10;;;13.00;;
68072;SDS011;54862;51.502;7.446;2023-06-22T13:53:33;17.67;;;12.10;;
68072;SDS011;54862;51.502;7.446;2023-06-22T13:55:59;18.30;;;12.82;;
68072;SDS011;54862;51.502;7.446;2023-06-22T13:58:25;17.40;;;12.45;;
68072;SDS011;54862;51.502;7.446;2023-06-22T14:00:51;16.45;;;12.23;;
68072;SDS011;54862;51.502;7.446;2023-06-22T14:03:17;16.73;;;11.77;;
68072;SDS011;54862;51.502;7.446;2023-06-22T14:05:43;17.58;;;12.00;;
68072;SDS011;54862;51.502;7.446;2023-06-22T14:08:09;16.58;;;11.90;;
68072;SDS011;54862;51.502;7.446;2023-06-22T14:10:35;17.55;;;11.95;;
68072;SDS011;54862;51.502;7.446;2023-06-22T14:13:04;16.67;;;11.65;;
68072;SDS011;54862;51.502;7.446;2023-06-22T14:15:31;16.67;;;12.57;;
68072;SDS011;54862;51.502;7.446;2023-06-22T14:17:59;16.85;;;12.15;;
68072;SDS011;54862;51.502;7.446;2023-06-22T14:20:25;18.70;;;11.95;;
68072;SDS011;54862;51.502;7.446;2023-06-22T14:22:51;16.05;;;11.32;;
68072;SDS011;54862;51.502;7.446;2023-06-22T14:25:17;17.98;;;12.85;;
68072;SDS011;54862;51.502;7.446;2023-06-22T14:27:43;17.65;;;12.32;;
68072;SDS011;54862;51.502;7.446;2023-06-22T14:30:12;15.90;;;12.25;;